createdAt,value
2019-05-14T00:00:36.246Z,85.37
2019-05-14T00:03:03.524Z,85.61
2019-05-14T00:05:32.172Z,85.95
2019-05-14T00:08:02.075Z,86.14
2019-05-14T00:10:29.005Z,86.00
2019-05-14T00:12:56.390Z,85.68
2019-05-14T00:15:23.849Z,85.06
2019-05-14T00:17:52.224Z,84.89
2019-05-14T00:20:22.414Z,85.05
2019-05-14T00:22:52.013Z,85.09
2019-05-14T00:25:18.889Z,85.11
2019-05-14T00:27:46.160Z,85.03
2019-05-14T00:30:14.416Z,84.84
2019-05-14T00:32:41.797Z,85.00
2019-05-14T00:35:11.148Z,85.17
2019-05-14T00:39:58.600Z,85.03
2019-05-14T00:42:26.035Z,85.06
2019-05-14T00:44:57.867Z,85.07
2019-05-14T00:47:23.651Z,85.34
2019-05-14T00:49:51.793Z,85.30
2019-05-14T00:52:22.281Z,85.30
2019-05-14T00:54:51.976Z,85.63
2019-05-14T00:57:21.012Z,85.77
2019-05-14T00:59:48.307Z,86.03
2019-05-14T01:02:15.770Z,85.98
2019-05-14T01:04:43.148Z,86.10
2019-05-14T01:07:11.938Z,86.37
2019-05-14T01:09:41.842Z,86.63
2019-05-14T01:12:08.937Z,86.71
2019-05-14T01:14:36.405Z,85.95
2019-05-14T01:17:03.835Z,86.57
2019-05-14T01:19:31.673Z,86.84
2019-05-14T01:22:01.525Z,87.17
2019-05-14T01:24:28.381Z,87.49
2019-05-14T01:26:55.650Z,87.47
2019-05-14T01:29:23.917Z,87.35
2019-05-14T01:31:52.070Z,87.29
2019-05-14T01:34:21.556Z,87.66
2019-05-14T01:36:48.780Z,87.54
2019-05-14T01:39:16.058Z,87.30
2019-05-14T01:41:43.313Z,87.10
2019-05-14T01:44:11.971Z,87.20
2019-05-14T01:46:39.344Z,87.25
2019-05-14T01:49:06.597Z,87.49
2019-05-14T01:51:33.926Z,87.69
2019-05-14T01:54:01.601Z,88.53
2019-05-14T01:56:28.935Z,88.82
2019-05-14T01:58:56.177Z,88.80
2019-05-14T02:01:23.442Z,88.62
2019-05-14T02:03:51.848Z,88.53
2019-05-14T02:06:21.293Z,88.30
2019-05-14T02:08:48.474Z,88.13
2019-05-14T02:11:15.755Z,88.16
2019-05-14T02:13:42.996Z,88.21
2019-05-14T02:16:13.089Z,88.39
2019-05-14T02:18:41.468Z,88.28
2019-05-14T02:21:08.748Z,88.10
2019-05-14T02:23:36.029Z,88.59
2019-05-14T02:26:03.273Z,88.87
2019-05-14T02:28:31.497Z,89.10
2019-05-14T02:31:03.144Z,89.38
2019-05-14T02:33:30.681Z,89.34
2019-05-14T02:35:59.972Z,89.07
2019-05-14T02:38:29.632Z,88.93
2019-05-14T02:40:55.435Z,89.27
2019-05-14T02:43:22.690Z,88.99
2019-05-14T02:46:02.068Z,88.75
2019-05-14T02:48:20.118Z,88.53
2019-05-14T02:50:49.399Z,88.08
2019-05-14T02:53:19.897Z,87.71
2019-05-14T02:55:46.031Z,87.38
2019-05-14T02:58:13.330Z,87.17
2019-05-14T03:00:40.978Z,87.21
2019-05-14T03:03:09.836Z,86.99
2019-05-14T03:05:40.153Z,87.19
2019-05-14T03:08:09.006Z,87.22
2019-05-14T03:10:36.000Z,87.22
2019-05-14T03:13:03.531Z,86.95
2019-05-14T03:15:30.980Z,87.21
2019-05-14T03:17:59.875Z,87.21
2019-05-14T03:20:28.830Z,87.44
2019-05-14T03:23:05.261Z,88.27
2019-05-14T03:25:25.697Z,88.42
2019-05-14T03:27:52.985Z,88.51
2019-05-14T03:30:22.837Z,88.43
2019-05-14T03:32:52.836Z,88.37
2019-05-14T03:35:24.517Z,88.13
2019-05-14T03:37:49.567Z,88.00
2019-05-14T03:40:19.432Z,88.09
2019-05-14T03:42:49.073Z,88.10
2019-05-14T03:45:15.935Z,87.90
2019-05-14T03:47:43.197Z,88.08
2019-05-14T03:50:10.506Z,88.25
2019-05-14T03:52:39.942Z,88.13
2019-05-14T03:55:09.480Z,88.12
2019-05-14T03:57:39.573Z,88.46
2019-05-14T04:00:09.917Z,88.76
2019-05-14T04:02:38.954Z,88.62
2019-05-14T04:05:05.176Z,88.93
2019-05-14T04:07:33.778Z,88.99
2019-05-14T04:10:01.959Z,88.71
2019-05-14T04:12:31.059Z,88.73
2019-05-14T04:14:59.926Z,88.92
2019-05-14T04:17:37.071Z,88.95
2019-05-14T04:19:59.971Z,89.14
2019-05-14T04:22:30.014Z,89.09
2019-05-14T04:24:59.664Z,89.22
2019-05-14T04:27:29.839Z,89.41
2019-05-14T04:30:00.396Z,89.89
2019-05-14T04:32:29.521Z,90.21
2019-05-14T04:34:59.657Z,90.44
2019-05-14T04:37:28.964Z,90.66
2019-05-14T04:39:59.162Z,90.77
2019-05-14T04:42:25.511Z,90.81
2019-05-14T04:44:52.850Z,90.76
2019-05-14T04:47:31.206Z,90.63
2019-05-14T04:49:50.496Z,90.38
2019-05-14T04:52:20.434Z,90.56
2019-05-14T04:54:49.942Z,90.91
2019-05-14T04:57:20.320Z,91.17
2019-05-14T04:59:49.385Z,91.52
2019-05-14T05:02:18.977Z,91.33
2019-05-14T05:04:50.573Z,91.00
2019-05-14T05:07:19.204Z,91.10
2019-05-14T05:09:49.873Z,90.58
2019-05-14T05:12:19.425Z,91.16
2019-05-14T05:14:45.396Z,90.83
2019-05-14T05:17:12.686Z,89.72
2019-05-14T05:19:45.047Z,89.67
2019-05-14T05:22:09.058Z,89.55
2019-05-14T05:24:38.082Z,89.43
2019-05-14T05:27:05.511Z,88.90
2019-05-14T05:29:32.739Z,86.63
2019-05-14T05:32:00.007Z,85.62
2019-05-14T05:34:28.281Z,83.64
2019-05-14T05:36:55.732Z,84.51
2019-05-14T05:39:23.156Z,84.31
2019-05-14T05:41:50.464Z,84.12
2019-05-14T05:44:18.780Z,83.46
2019-05-14T05:46:46.280Z,83.48
2019-05-14T05:49:13.633Z,82.04
2019-05-14T05:51:40.935Z,81.70
2019-05-14T05:54:09.232Z,80.09
2019-05-14T05:56:38.768Z,78.25
2019-05-14T05:59:05.996Z,77.23
2019-05-14T06:01:42.836Z,75.14
2019-05-14T06:04:02.724Z,75.77
2019-05-14T06:06:30.413Z,73.11
2019-05-14T06:08:58.486Z,71.71
2019-05-14T06:11:25.857Z,69.33
2019-05-14T06:13:53.168Z,68.67
2019-05-14T06:16:20.669Z,69.33
2019-05-14T06:18:48.637Z,66.43
2019-05-14T06:21:18.689Z,66.11
2019-05-14T06:23:45.423Z,63.00
2019-05-14T06:26:12.731Z,63.54
2019-05-14T06:28:41.092Z,60.76
2019-05-14T06:31:09.944Z,60.09
2019-05-14T06:33:39.337Z,58.08
2019-05-14T06:36:08.605Z,58.32
2019-05-14T06:38:38.788Z,57.60
2019-05-14T06:41:08.201Z,59.08
2019-05-14T06:43:35.219Z,58.88
2019-05-14T06:46:02.673Z,57.86
2019-05-14T06:48:34.584Z,58.91
2019-05-14T06:50:59.584Z,57.71
2019-05-14T06:53:28.993Z,58.84
2019-05-14T06:55:58.805Z,59.70
2019-05-14T06:58:25.896Z,58.06
2019-05-14T07:00:53.333Z,57.31
2019-05-14T07:03:20.599Z,58.04
2019-05-14T07:05:49.258Z,62.90
2019-05-14T07:08:18.835Z,59.72
2019-05-14T07:10:48.366Z,60.17
2019-05-14T07:13:15.162Z,56.70
2019-05-14T07:15:42.445Z,54.25
2019-05-14T07:18:09.723Z,54.05
2019-05-14T07:20:39.256Z,53.34
2019-05-14T07:23:08.220Z,54.01
2019-05-14T07:25:35.633Z,52.93
2019-05-14T07:28:02.881Z,53.49
2019-05-14T07:30:30.967Z,53.72
2019-05-14T07:32:58.805Z,53.73
2019-05-14T07:35:28.695Z,53.42
2019-05-14T07:37:55.646Z,53.74
2019-05-14T07:40:22.885Z,52.05
2019-05-14T07:42:50.185Z,54.68
2019-05-14T07:45:18.455Z,49.38
2019-05-14T07:47:46.018Z,51.35
2019-05-14T07:50:19.573Z,51.15
2019-05-14T07:52:49.799Z,49.64
2019-05-14T07:55:18.533Z,50.58
2019-05-14T07:57:48.082Z,50.22
2019-05-14T08:00:19.177Z,51.11
2019-05-14T08:02:48.921Z,51.94
2019-05-14T08:05:17.938Z,51.45
2019-05-14T08:07:44.969Z,52.11
2019-05-14T08:10:12.336Z,51.68
2019-05-14T08:12:39.664Z,56.33
2019-05-14T08:15:17.633Z,52.26
2019-05-14T08:17:38.768Z,48.92
2019-05-14T08:20:08.883Z,47.52
2019-05-14T08:22:38.349Z,52.71
2019-05-14T08:25:08.358Z,49.82
2019-05-14T08:27:38.936Z,47.02
2019-05-14T08:30:08.212Z,45.81
2019-05-14T08:32:35.692Z,41.58
2019-05-14T08:35:03.103Z,43.29
2019-05-14T08:37:30.370Z,45.82
2019-05-14T08:39:58.844Z,40.64
2019-05-14T08:42:26.283Z,45.61
2019-05-14T08:44:53.666Z,41.71
2019-05-14T08:47:21.121Z,40.92
2019-05-14T08:49:50.800Z,37.72
2019-05-14T08:52:19.234Z,40.60
2019-05-14T08:54:49.044Z,37.13
2019-05-14T08:57:18.686Z,39.39
2019-05-14T08:59:45.167Z,39.71
2019-05-14T09:02:12.432Z,38.06
2019-05-14T09:04:42.599Z,39.21
2019-05-14T09:07:09.645Z,37.35
2019-05-14T09:09:38.237Z,40.47
2019-05-14T09:12:12.120Z,36.85
2019-05-14T09:14:35.056Z,35.31
2019-05-14T09:17:02.477Z,31.90
2019-05-14T09:19:29.839Z,33.13
2019-05-14T09:21:58.937Z,36.30
2019-05-14T09:24:28.865Z,36.64
2019-05-14T09:26:55.510Z,37.93
2019-05-14T09:29:26.128Z,37.94
2019-05-14T09:31:52.029Z,37.56
2019-05-14T09:34:19.740Z,38.79
2019-05-14T09:36:48.891Z,39.35
2019-05-14T09:39:18.604Z,39.39
2019-05-14T09:41:45.502Z,38.30
2019-05-14T09:44:12.860Z,38.87
2019-05-14T09:46:40.205Z,36.51
2019-05-14T09:49:08.708Z,39.58
2019-05-14T09:51:38.158Z,39.46
2019-05-14T09:54:05.287Z,38.99
2019-05-14T09:56:32.543Z,44.40
2019-05-14T09:58:59.879Z,39.35
2019-05-14T10:01:27.260Z,44.89
2019-05-14T10:03:54.626Z,38.04
2019-05-14T10:06:21.984Z,37.19
2019-05-14T10:08:49.365Z,37.41
2019-05-14T10:11:16.623Z,37.57
2019-05-14T10:13:43.927Z,41.28
2019-05-14T10:16:11.181Z,40.80
2019-05-14T10:18:38.628Z,40.33
2019-05-14T10:21:08.381Z,38.83
2019-05-14T10:23:35.401Z,36.63
2019-05-14T10:26:03.768Z,37.10
2019-05-14T10:28:31.031Z,38.58
2019-05-14T10:30:59.947Z,38.23
2019-05-14T10:33:28.726Z,35.51
2019-05-14T10:35:58.793Z,37.09
2019-05-14T10:38:26.391Z,39.09
2019-05-14T10:40:53.699Z,37.26
2019-05-14T10:43:23.677Z,33.54
2019-05-14T10:45:51.264Z,32.98
2019-05-14T10:48:18.891Z,36.25
2019-05-14T10:50:59.051Z,35.16
2019-05-14T10:53:15.594Z,31.85
2019-05-14T10:55:43.155Z,31.57
2019-05-14T10:58:11.691Z,33.04
2019-05-14T11:00:42.200Z,32.08
2019-05-14T11:03:13.355Z,32.08
2019-05-14T11:05:45.132Z,35.06
2019-05-14T11:08:12.950Z,31.67
2019-05-14T11:10:42.155Z,32.91
2019-05-14T11:13:11.348Z,29.62
2019-05-14T11:15:39.626Z,29.71
2019-05-14T11:18:08.734Z,32.44
2019-05-14T11:20:41.710Z,28.96
2019-05-14T11:23:05.553Z,30.54
2019-05-14T11:25:32.855Z,29.69
2019-05-14T11:28:02.254Z,30.55
2019-05-14T11:30:29.704Z,32.08
2019-05-14T11:32:58.393Z,29.97
2019-05-14T11:35:28.603Z,31.14
2019-05-14T11:37:55.424Z,28.78
2019-05-14T11:40:24.275Z,32.48
2019-05-14T11:42:51.883Z,28.69
2019-05-14T11:45:19.217Z,30.27
2019-05-14T11:47:48.703Z,32.80
2019-05-14T11:50:15.869Z,33.10
2019-05-14T11:52:43.117Z,31.16
2019-05-14T11:55:10.610Z,28.38
2019-05-14T11:57:37.872Z,28.00
2019-05-14T12:00:08.389Z,30.82
2019-05-14T12:02:35.235Z,27.20
2019-05-14T12:05:02.696Z,28.64
2019-05-14T12:07:31.104Z,29.15
2019-05-14T12:09:58.441Z,31.51
2019-05-14T12:12:25.904Z,29.28
2019-05-14T12:14:53.332Z,29.75
2019-05-14T12:17:21.669Z,27.77
2019-05-14T12:19:49.127Z,26.62
2019-05-14T12:22:18.791Z,29.51
2019-05-14T12:24:45.741Z,27.71
2019-05-14T12:27:12.968Z,26.06
2019-05-14T12:29:40.399Z,27.53
2019-05-14T12:32:12.862Z,27.08
2019-05-14T12:34:38.690Z,26.66
2019-05-14T12:37:08.854Z,31.90
2019-05-14T12:39:35.770Z,28.07
2019-05-14T12:42:03.205Z,29.48
2019-05-14T12:44:30.490Z,30.42
2019-05-14T12:46:58.744Z,27.69
2019-05-14T12:49:26.184Z,26.13
2019-05-14T12:51:53.573Z,24.78
2019-05-14T12:54:20.904Z,25.46
2019-05-14T12:56:49.415Z,25.07
2019-05-14T12:59:16.855Z,23.58
2019-05-14T13:01:44.130Z,23.31
2019-05-14T13:04:11.379Z,23.78
2019-05-14T13:06:40.047Z,23.05
2019-05-14T13:09:09.378Z,24.40
2019-05-14T13:11:41.276Z,24.40
2019-05-14T13:14:06.409Z,22.48
2019-05-14T13:16:33.803Z,24.09
2019-05-14T13:19:01.180Z,24.09
2019-05-14T13:21:29.057Z,24.52
2019-05-14T13:23:56.510Z,22.42
2019-05-14T13:26:23.832Z,24.04
2019-05-14T13:28:51.311Z,22.38
2019-05-14T13:31:18.633Z,24.74
2019-05-14T13:33:48.581Z,24.74
2019-05-14T13:36:15.377Z,25.23
2019-05-14T13:38:42.640Z,26.43
2019-05-14T13:41:09.920Z,26.42
2019-05-14T13:43:39.111Z,26.63
2019-05-14T13:46:07.272Z,25.24
2019-05-14T13:48:39.595Z,23.05
2019-05-14T13:51:04.954Z,23.90
2019-05-14T13:53:32.343Z,22.74
2019-05-14T13:55:59.586Z,23.33
2019-05-14T13:58:28.642Z,23.33
2019-05-14T14:00:59.023Z,20.82
2019-05-14T14:03:26.265Z,25.52
2019-05-14T14:05:54.691Z,23.30
2019-05-14T14:08:22.089Z,23.95
2019-05-14T14:10:53.704Z,23.97
2019-05-14T14:13:19.867Z,25.44
2019-05-14T14:15:48.947Z,26.79
2019-05-14T14:18:20.667Z,29.53
2019-05-14T14:20:45.773Z,26.09
2019-05-14T14:23:22.055Z,23.87
2019-05-14T14:25:42.481Z,22.60
2019-05-14T14:28:10.208Z,23.46
2019-05-14T14:30:39.456Z,22.46
2019-05-14T14:33:06.701Z,23.67
2019-05-14T14:35:34.332Z,22.53
2019-05-14T14:38:01.621Z,22.10
2019-05-14T14:40:30.110Z,22.10
2019-05-14T14:42:59.371Z,21.66
2019-05-14T14:45:29.186Z,20.28
2019-05-14T14:47:56.129Z,18.25
2019-05-14T14:50:23.393Z,18.48
2019-05-14T14:52:50.758Z,24.19
2019-05-14T14:55:19.317Z,21.02
2019-05-14T14:57:53.598Z,23.08
2019-05-14T15:00:16.190Z,21.94
2019-05-14T15:02:43.469Z,20.47
2019-05-14T15:05:14.029Z,20.91
2019-05-14T15:07:40.964Z,21.98
2019-05-14T15:10:09.108Z,21.09
2019-05-14T15:12:39.896Z,24.29
2019-05-14T15:15:06.251Z,22.70
2019-05-14T15:17:33.506Z,23.27
2019-05-14T15:20:00.791Z,21.79
2019-05-14T15:22:30.901Z,23.09
2019-05-14T15:24:58.635Z,22.60
2019-05-14T15:27:28.227Z,25.47
2019-05-14T15:29:55.331Z,24.22
2019-05-14T15:32:22.732Z,23.32
2019-05-14T15:34:50.751Z,24.24
2019-05-14T15:37:19.218Z,26.30
2019-05-14T15:39:48.910Z,25.47
2019-05-14T15:42:15.938Z,25.57
2019-05-14T15:44:52.212Z,23.88
2019-05-14T15:47:12.853Z,22.51
2019-05-14T15:49:40.127Z,23.36
2019-05-14T15:52:08.405Z,19.68
2019-05-14T15:54:45.595Z,20.78
2019-05-14T15:57:05.002Z,21.18
2019-05-14T15:59:32.254Z,23.94
2019-05-14T16:01:59.581Z,21.67
2019-05-14T16:04:28.648Z,21.96
2019-05-14T16:06:58.469Z,25.44
2019-05-14T16:09:28.726Z,24.42
2019-05-14T16:11:54.881Z,24.45
2019-05-14T16:14:22.241Z,27.13
2019-05-14T16:16:49.551Z,29.53
2019-05-14T16:19:19.056Z,28.42
2019-05-14T16:21:45.999Z,25.94
2019-05-14T16:24:13.265Z,24.18
2019-05-14T16:26:40.806Z,26.59
2019-05-14T16:29:08.901Z,24.74
2019-05-14T16:31:42.584Z,23.13
2019-05-14T16:34:05.833Z,24.18
2019-05-14T16:36:33.239Z,23.99
2019-05-14T16:39:00.539Z,23.04
2019-05-14T16:41:29.019Z,23.04
2019-05-14T16:43:58.682Z,21.52
2019-05-14T16:46:25.685Z,22.72
2019-05-14T16:48:52.939Z,22.65
2019-05-14T16:51:20.186Z,22.60
2019-05-14T16:53:48.775Z,23.02
2019-05-14T16:56:19.119Z,23.03
2019-05-14T16:58:46.636Z,24.72
2019-05-14T17:01:13.906Z,25.64
2019-05-14T17:03:41.234Z,28.17
2019-05-14T17:06:08.525Z,31.34
2019-05-14T17:08:35.784Z,30.15
2019-05-14T17:11:03.139Z,31.41
2019-05-14T17:13:30.425Z,33.02
2019-05-14T17:15:58.947Z,34.05
2019-05-14T17:18:28.730Z,32.88
2019-05-14T17:20:55.680Z,35.79
2019-05-14T17:23:22.982Z,34.74
2019-05-14T17:25:50.332Z,34.06
2019-05-14T17:28:17.639Z,34.74
2019-05-14T17:30:44.875Z,34.36
2019-05-14T17:33:12.154Z,36.06
2019-05-14T17:35:39.567Z,34.51
2019-05-14T17:38:09.178Z,34.69
2019-05-14T17:40:36.087Z,37.84
2019-05-14T17:43:03.358Z,37.31
2019-05-14T17:45:30.725Z,36.85
2019-05-14T17:47:58.521Z,35.15
2019-05-14T17:50:26.608Z,38.09
2019-05-14T17:52:56.864Z,39.03
2019-05-14T17:55:24.477Z,39.41
2019-05-14T17:57:58.240Z,36.79
2019-05-14T18:00:21.166Z,38.26
2019-05-14T18:02:48.662Z,38.47
2019-05-14T18:05:18.795Z,39.45
2019-05-14T18:07:48.326Z,40.48
2019-05-14T18:10:15.621Z,39.18
2019-05-14T18:12:42.870Z,39.30
2019-05-14T18:15:10.189Z,41.33
2019-05-14T18:17:39.362Z,38.33
2019-05-14T18:20:08.431Z,39.79
2019-05-14T18:22:36.063Z,42.79
2019-05-14T18:25:03.880Z,41.94
2019-05-14T18:27:31.121Z,40.56
2019-05-14T18:29:59.301Z,38.55
2019-05-14T18:32:26.837Z,40.38
2019-05-14T18:34:54.118Z,41.02
2019-05-14T18:37:21.413Z,43.15
2019-05-14T18:39:48.667Z,39.46
2019-05-14T18:42:15.972Z,38.55
2019-05-14T18:44:43.262Z,39.72
2019-05-14T18:47:10.570Z,38.43
2019-05-14T18:49:37.788Z,40.23
2019-05-14T18:52:05.148Z,41.34
2019-05-14T18:54:32.432Z,40.52
2019-05-14T18:56:59.796Z,41.08
2019-05-14T18:59:30.767Z,43.03
2019-05-14T19:01:59.413Z,43.08
2019-05-14T19:04:28.275Z,43.75
2019-05-14T19:06:56.198Z,44.99
2019-05-14T19:09:23.912Z,44.73
2019-05-14T19:11:51.457Z,46.87
2019-05-14T19:14:19.060Z,47.20
2019-05-14T19:16:48.991Z,48.36
2019-05-14T19:19:20.664Z,52.01
2019-05-14T19:21:48.827Z,53.83
2019-05-14T19:24:16.141Z,53.97
2019-05-14T19:26:43.485Z,54.98
2019-05-14T19:29:10.843Z,55.27
2019-05-14T19:31:38.653Z,56.55
2019-05-14T19:34:08.330Z,59.52
2019-05-14T19:36:35.329Z,58.92
2019-05-14T19:39:03.610Z,58.76
2019-05-14T19:41:31.061Z,60.73
2019-05-14T19:43:59.610Z,61.58
2019-05-14T19:46:29.153Z,62.34
2019-05-14T19:48:58.941Z,63.44
2019-05-14T19:51:27.787Z,64.09
2019-05-14T19:53:54.907Z,64.78
2019-05-14T19:56:22.285Z,65.46
2019-05-14T19:58:51.099Z,65.92
2019-05-14T20:01:19.432Z,66.55
2019-05-14T20:03:46.938Z,66.47
2019-05-14T20:06:14.499Z,66.23
2019-05-14T20:08:41.871Z,66.88
2019-05-14T20:11:09.156Z,67.39
2019-05-14T20:13:38.899Z,67.84
2019-05-14T20:16:05.789Z,68.46
2019-05-14T20:18:33.142Z,68.81
2019-05-14T20:21:01.595Z,69.90
2019-05-14T20:23:29.222Z,69.59
2019-05-14T20:25:58.588Z,69.70
2019-05-14T20:28:25.883Z,69.53
2019-05-14T20:30:53.258Z,69.51
2019-05-14T20:33:20.848Z,69.63
2019-05-14T20:35:48.694Z,70.42
2019-05-14T20:38:18.379Z,70.95
2019-05-14T20:40:45.665Z,71.83
2019-05-14T20:43:12.955Z,72.86
2019-05-14T20:45:40.217Z,73.36
2019-05-14T20:48:08.900Z,73.17
2019-05-14T20:50:38.323Z,72.93
2019-05-14T20:53:05.582Z,72.92
2019-05-14T20:55:32.834Z,73.19
2019-05-14T20:58:00.167Z,73.29
2019-05-14T21:00:29.254Z,73.52
2019-05-14T21:02:59.245Z,74.40
2019-05-14T21:05:28.418Z,74.53
2019-05-14T21:07:55.614Z,74.36
2019-05-14T21:10:23.076Z,74.14
2019-05-14T21:12:50.583Z,73.82
2019-05-14T21:15:18.328Z,73.80
2019-05-14T21:17:45.725Z,73.51
2019-05-14T21:20:13.423Z,73.30
2019-05-14T21:22:40.805Z,73.94
2019-05-14T21:25:11.174Z,74.17
2019-05-14T21:27:44.909Z,74.38
2019-05-14T21:30:09.290Z,74.32
2019-05-14T21:32:42.040Z,74.32
2019-05-14T21:35:06.294Z,74.26
2019-05-14T21:37:33.705Z,74.37
2019-05-14T21:40:01.235Z,74.88
2019-05-14T21:42:28.695Z,75.10
2019-05-14T21:44:58.245Z,75.32
2019-05-14T21:47:28.503Z,75.87
2019-05-14T21:49:55.511Z,76.21
2019-05-14T21:54:06.031Z,76.86
2019-05-14T21:56:33.374Z,77.97
2019-05-14T21:59:01.417Z,78.02
2019-05-14T22:01:31.038Z,77.95
2019-05-14T22:03:59.286Z,78.65
2019-05-14T22:06:29.098Z,78.93
2019-05-14T22:08:58.958Z,79.08
2019-05-14T22:11:28.102Z,79.13
2019-05-14T22:13:55.083Z,79.36
2019-05-14T22:16:22.492Z,79.45
2019-05-14T22:18:49.771Z,79.60
2019-05-14T22:21:18.313Z,79.84
2019-05-14T22:23:48.025Z,80.06
2019-05-14T22:26:15.006Z,80.50
2019-05-14T22:28:42.288Z,80.56
2019-05-14T22:31:09.600Z,80.60
2019-05-14T22:33:38.261Z,80.90
2019-05-14T22:36:05.735Z,81.22
2019-05-14T22:38:33.043Z,81.09
2019-05-14T22:41:00.508Z,81.10
2019-05-14T22:43:28.820Z,81.41
2019-05-14T22:45:58.905Z,81.81
2019-05-14T22:48:25.648Z,82.10
2019-05-14T22:50:52.991Z,82.19
2019-05-14T22:53:20.298Z,82.20
2019-05-14T22:55:49.208Z,82.38
2019-05-14T22:58:25.311Z,82.26
2019-05-14T23:00:59.757Z,82.48
2019-05-14T23:03:18.353Z,82.77
2019-05-14T23:05:48.509Z,82.59
2019-05-14T23:08:18.469Z,82.82
2019-05-14T23:10:49.022Z,82.99
2019-05-14T23:13:18.609Z,82.90
2019-05-14T23:15:48.109Z,83.29
2019-05-14T23:18:18.128Z,83.29
2019-05-14T23:20:49.243Z,83.10
2019-05-14T23:23:18.511Z,83.19
2019-05-14T23:25:46.675Z,83.23
2019-05-14T23:28:15.363Z,83.44
2019-05-14T23:30:48.024Z,83.74
2019-05-14T23:33:18.900Z,84.05
2019-05-14T23:35:48.236Z,84.25
2019-05-14T23:38:18.953Z,84.12
2019-05-14T23:40:49.342Z,84.17
2019-05-14T23:43:18.664Z,84.20
2019-05-14T23:45:47.200Z,84.09
2019-05-14T23:48:15.421Z,84.01
2019-05-14T23:50:44.152Z,84.06
2019-05-14T23:53:12.815Z,83.76
2019-05-14T23:55:41.588Z,83.82
2019-05-14T23:58:10.751Z,83.83
